Time;durP1;ratioP1;P1;durP2;ratioP2;P2;SDS_P1;SDS_P2;PMS_P1;PMS_P2;Temp;Humidity;BMP_temperature;BMP_pressure;BME280_temperature;BME280_humidity;BME280_pressure;Samples;Min_cycle;Max_cycle;Signal;HPM_P1;HPM_P2
2023/10/02 00:03:32;;;;;;;11.88;5.55;;;;;;;16.72;65.44;101597.25;7398810;19;20014;-69
2023/10/02 00:06:01;;;;;;;13.07;5.53;;;;;;;16.72;65.82;101599.00;7396436;19;20018;-68
2023/10/02 00:08:40;;;;;;;11.77;6.60;;;;;;;16.72;65.71;101606.94;7396492;19;20027;-68
2023/10/02 00:14:18;;;;;;;10.82;5.70;;;;;;;16.72;65.55;101599.00;7398329;19;20427;-68
2023/10/02 00:16:58;;;;;;;11.82;5.55;;;;;;;16.71;65.48;101595.50;7398267;19;20014;-67
2023/10/02 00:19:28;;;;;;;10.48;5.43;;;;;;;16.70;65.91;101587.59;7397764;19;20070;-68
2023/10/02 00:22:03;;;;;;;11.15;5.13;;;;;;;16.70;66.05;101593.75;7398081;19;20015;-68
2023/10/02 00:24:35;;;;;;;10.38;5.68;;;;;;;16.70;65.89;101591.13;7397586;19;20018;-68
2023/10/02 00:27:08;;;;;;;12.27;5.88;;;;;;;16.68;65.57;101585.03;7397690;19;20010;-68
2023/10/02 00:29:50;;;;;;;14.13;5.88;;;;;;;16.71;65.89;101592.84;7396404;19;20075;-69
2023/10/02 00:32:20;;;;;;;11.70;6.07;;;;;;;16.72;65.59;101585.75;7398152;19;20047;-68
2023/10/02 00:34:50;;;;;;;11.63;5.93;;;;;;;16.71;65.59;101576.94;7397200;19;20010;-68
2023/10/02 00:37:19;;;;;;;12.93;6.15;;;;;;;16.71;65.91;101576.94;7397498;19;20018;-68
2023/10/02 00:39:51;;;;;;;11.70;6.45;;;;;;;16.70;65.82;101588.47;7397434;19;20070;-68
2023/10/02 00:42:28;;;;;;;13.70;6.65;;;;;;;16.70;65.84;101580.50;7395268;19;20485;-67
2023/10/02 00:44:55;;;;;;;12.95;6.75;;;;;;;16.71;65.70;101584.06;7395643;19;20018;-71
2023/10/02 00:47:45;;;;;;;10.63;6.25;;;;;;;16.69;66.01;101581.44;7396340;19;20015;-71
2023/10/02 00:50:19;;;;;;;13.05;6.10;;;;;;;16.69;65.71;101577.94;7397514;19;20011;-72
2023/10/02 00:52:54;;;;;;;13.80;7.10;;;;;;;16.69;65.92;101588.53;7395958;19;20013;-72
2023/10/02 00:55:25;;;;;;;12.98;6.28;;;;;;;16.67;65.72;101582.41;7396757;19;20025;-71
2023/10/02 00:57:58;;;;;;;14.95;7.15;;;;;;;16.67;65.87;101591.22;7396408;19;20035;-72
2023/10/02 01:00:35;;;;;;;;;;;;;;;16.65;66.24;101586.91;7398092;19;20375;-72
2023/10/02 01:03:07;;;;;;;12.57;6.40;;;;;;;16.62;65.93;101585.22;7396424;19;19907;-70
2023/10/02 01:08:42;;;;;;;11.48;6.90;;;;;;;16.60;65.73;101587.94;7394078;19;20019;-71
2023/10/02 01:11:13;;;;;;;15.25;7.57;;;;;;;16.59;66.15;101587.97;7396476;19;20026;-71
2023/10/02 01:13:45;;;;;;;12.18;6.35;;;;;;;16.58;65.87;101586.22;7397041;19;20512;-68
2023/10/02 01:16:17;;;;;;;12.75;6.90;;;;;;;16.58;66.25;101581.81;7396261;19;20381;-69
2023/10/02 01:18:48;;;;;;;13.05;6.93;;;;;;;16.58;66.13;101581.81;7394484;19;20014;-71
2023/10/02 01:21:18;;;;;;;15.48;6.90;;;;;;;16.57;65.97;101585.38;7395892;19;20358;-69
2023/10/02 01:24:06;;;;;;;16.00;6.65;;;;;;;16.58;66.23;101586.22;7396148;19;20527;-70
2023/10/02 01:26:37;;;;;;;14.75;7.40;;;;;;;16.56;66.23;101586.28;7394056;19;20501;-70
2023/10/02 01:29:07;;;;;;;12.90;6.75;;;;;;;16.56;66.15;101582.78;7393758;19;20011;-69
2023/10/02 01:31:41;;;;;;;14.10;6.95;;;;;;;16.55;66.30;101579.25;7395548;19;20374;-70
2023/10/02 01:34:13;;;;;;;12.32;6.40;;;;;;;16.55;66.31;101581.91;7396201;19;20015;-70
2023/10/02 01:36:42;;;;;;;15.68;7.22;;;;;;;16.55;66.10;101583.69;7396063;19;20034;-67
2023/10/02 01:39:14;;;;;;;15.77;7.40;;;;;;;16.55;66.19;101578.41;7393868;19;20018;-69
2023/10/02 01:41:48;;;;;;;15.35;7.18;;;;;;;16.54;66.44;101568.72;7401330;19;20007;-70
2023/10/02 01:44:20;;;;;;;12.45;6.70;;;;;;;16.55;66.08;101546.59;7399394;19;20183;-69
2023/10/02 01:46:52;;;;;;;12.70;6.78;;;;;;;16.56;66.31;101558.94;7396915;19;20027;-68
2023/10/02 01:49:27;;;;;;;12.25;6.38;;;;;;;16.54;66.00;101564.28;7395844;19;20013;-68
2023/10/02 01:52:01;;;;;;;16.17;6.72;;;;;;;16.55;65.88;101566.00;7395678;19;20010;-69
2023/10/02 01:54:32;;;;;;;14.70;7.20;;;;;;;16.56;66.04;101574.84;7395437;19;20049;-69
2023/10/02 01:57:04;;;;;;;13.95;7.40;;;;;;;16.55;65.84;101579.25;7394566;19;20477;-68
2023/10/02 01:59:33;;;;;;;14.35;7.65;;;;;;;16.54;65.92;101576.66;7395505;19;20010;-69
2023/10/02 02:02:12;;;;;;;14.15;7.10;;;;;;;16.53;66.31;101575.81;7395096;19;20178;-69
2023/10/02 02:04:42;;;;;;;16.10;7.03;;;;;;;16.51;66.12;101582.06;7401064;19;20029;-69
2023/10/02 02:07:10;;;;;;;12.70;6.28;;;;;;;16.48;66.19;101582.16;7399002;19;20007;-69
2023/10/02 02:09:43;;;;;;;14.43;6.60;;;;;;;16.41;66.46;101573.56;7402492;19;20015;-69
2023/10/02 02:12:12;;;;;;;13.27;6.70;;;;;;;16.37;66.31;101567.50;7402422;19;20032;-68
2023/10/02 02:14:49;;;;;;;17.05;7.90;;;;;;;16.32;66.48;101568.56;7399467;19;20014;-69
2023/10/02 02:17:20;;;;;;;12.82;6.88;;;;;;;16.27;66.45;101574.00;7402037;19;20018;-70
2023/10/02 02:19:50;;;;;;;16.67;7.32;;;;;;;16.22;66.77;101573.28;7402374;19;20075;-67
2023/10/02 02:22:23;;;;;;;12.00;6.00;;;;;;;16.17;66.64;101576.06;7401998;19;20010;-68
2023/10/02 02:24:55;;;;;;;13.90;7.53;;;;;;;16.11;66.75;101573.63;7401429;19;20398;-69
2023/10/02 02:27:24;;;;;;;11.90;6.90;;;;;;;16.05;66.92;101572.06;7401473;19;20010;-69
2023/10/02 02:29:56;;;;;;;11.63;6.88;;;;;;;16.01;67.20;101575.72;7401442;19;20078;-69
2023/10/02 02:32:36;;;;;;;14.55;7.72;;;;;;;15.96;67.14;101572.31;7402204;19;20007;-70
2023/10/02 02:35:06;;;;;;;14.20;7.38;;;;;;;15.90;67.54;101572.53;7402166;19;20014;-69
2023/10/02 02:37:34;;;;;;;13.82;7.20;;;;;;;15.85;67.57;101585.03;7400649;19;20037;-68
2023/10/02 02:42:50;;;;;;;13.15;7.15;;;;;;;15.74;67.79;101580.88;7397820;19;20413;-68
2023/10/02 02:45:28;;;;;;;15.18;7.55;;;;;;;15.69;68.06;101574.00;7401214;19;20013;-70
2023/10/02 02:47:57;;;;;;;18.58;7.75;;;;;;;15.64;68.17;101574.13;7399730;19;20544;-70
2023/10/02 02:50:28;;;;;;;17.70;8.07;;;;;;;15.61;67.97;101571.59;7401041;19;20018;-68
2023/10/02 02:53:16;;;;;;;15.02;7.35;;;;;;;15.53;68.04;101568.31;7401257;19;20020;-68
2023/10/02 02:55:48;;;;;;;14.40;7.35;;;;;;;15.52;68.11;101574.50;7398701;19;20014;-68
2023/10/02 02:58:17;;;;;;;15.90;8.15;;;;;;;15.50;68.35;101577.19;7399226;19;20031;-67
2023/10/02 03:00:46;;;;;;;16.88;8.02;;;;;;;15.48;68.30;101576.38;7400713;19;20014;-69
2023/10/02 03:05:58;;;;;;;13.68;6.82;;;;;;;15.45;68.50;101576.47;7397446;19;20018;-68
2023/10/02 03:08:37;;;;;;;13.90;7.47;;;;;;;15.41;68.61;101574.81;7397624;19;20037;-69
2023/10/02 03:11:10;;;;;;;15.75;6.90;;;;;;;15.39;68.53;101577.53;7397787;19;20007;-69
2023/10/02 03:13:39;;;;;;;14.27;7.27;;;;;;;15.38;68.74;101574.91;7399369;19;20014;-69
2023/10/02 03:16:13;;;;;;;14.32;7.70;;;;;;;15.36;68.55;101582.88;7399892;19;20445;-69
2023/10/02 03:18:43;;;;;;;14.07;7.30;;;;;;;15.34;69.05;101589.13;7398119;19;20014;-70
2023/10/02 03:21:21;;;;;;;18.85;8.07;;;;;;;15.31;69.00;101580.34;7399696;19;20481;-70
2023/10/02 03:23:53;;;;;;;14.15;7.28;;;;;;;15.30;69.01;101583.03;7400376;19;20025;-69
2023/10/02 03:26:37;;;;;;;14.98;7.70;;;;;;;15.28;69.11;101582.25;7397274;19;20018;-69
2023/10/02 03:29:11;;;;;;;12.57;7.57;;;;;;;15.28;68.92;101580.47;7397433;19;20015;-68
2023/10/02 03:31:43;;;;;;;17.83;7.93;;;;;;;15.27;69.11;101573.44;7399864;19;20018;-69
2023/10/02 03:36:59;;;;;;;16.20;8.15;;;;;;;15.26;68.79;101573.47;7399548;19;20018;-69
2023/10/02 03:42:15;;;;;;;15.30;7.45;;;;;;;15.26;69.15;101573.47;7396411;19;20018;-69
2023/10/02 03:44:45;;;;;;;13.73;7.43;;;;;;;15.27;69.16;101564.66;7399678;19;20037;-69
2023/10/02 03:47:15;;;;;;;15.73;7.97;;;;;;;15.27;69.11;101562.84;7398594;19;20015;-69
2023/10/02 03:49:45;;;;;;;15.85;8.38;;;;;;;15.28;68.79;101563.75;7396509;19;20007;-69
2023/10/02 03:52:17;;;;;;;16.88;7.38;;;;;;;15.28;69.11;101559.31;7398888;19;20036;-69
2023/10/02 03:54:46;;;;;;;15.70;7.38;;;;;;;15.28;69.16;101563.75;7398560;19;20016;-68
2023/10/02 04:00:00;;;;;;;17.25;7.63;;;;;;;15.29;69.08;101562.81;7395931;19;20017;-69
2023/10/02 04:02:36;;;;;;;17.08;7.50;;;;;;;15.29;69.08;101560.16;7398726;19;20362;-68
2023/10/02 04:05:05;;;;;;;16.35;8.27;;;;;;;15.28;68.87;101564.59;7399038;19;20014;-69
2023/10/02 04:07:35;;;;;;;12.70;7.45;;;;;;;15.28;69.01;101564.59;7397859;19;20035;-70
2023/10/02 04:10:06;;;;;;;16.45;7.68;;;;;;;15.28;69.15;101559.31;7398268;19;20028;-70
2023/10/02 04:12:50;;;;;;;14.55;6.90;;;;;;;15.28;69.06;101559.31;7397848;19;20011;-69
2023/10/02 04:15:18;;;;;;;15.43;8.20;;;;;;;15.27;69.13;101556.72;7398743;19;20488;-69
2023/10/02 04:17:49;;;;;;;17.75;8.65;;;;;;;15.27;69.20;101562.84;7397465;19;20015;-70
2023/10/02 04:20:27;;;;;;;15.07;7.22;;;;;;;15.25;69.29;101547.94;7398253;19;20015;-68
2023/10/02 04:22:54;;;;;;;16.17;7.53;;;;;;;15.27;69.15;101554.91;7395868;19;20003;-69
2023/10/02 04:25:25;;;;;;;16.45;7.43;;;;;;;15.28;69.44;101558.44;7395712;19;20021;-69
2023/10/02 04:28:08;;;;;;;15.35;7.63;;;;;;;15.27;69.35;101557.56;7396095;19;20114;-69
2023/10/02 04:30:37;;;;;;;16.08;7.80;;;;;;;15.26;69.23;101547.91;7397709;19;20010;-69
2023/10/02 04:33:08;;;;;;;17.23;8.18;;;;;;;15.27;69.39;101543.50;7397047;19;20389;-69
2023/10/02 04:35:57;;;;;;;22.27;8.90;;;;;;;15.27;69.27;101544.34;7394858;19;20010;-69
2023/10/02 04:38:49;;;;;;;16.58;8.32;;;;;;;15.26;69.26;101536.47;7395710;19;20022;-69
2023/10/02 04:41:25;;;;;;;16.45;9.18;;;;;;;15.26;69.29;101531.19;7396748;19;20085;-69
2023/10/02 04:43:57;;;;;;;14.60;7.57;;;;;;;15.25;69.53;101538.25;7397555;19;20018;-68
2023/10/02 04:46:32;;;;;;;14.60;7.47;;;;;;;15.24;69.53;101525.06;7396812;19;20051;-68
2023/10/02 04:49:01;;;;;;;18.20;9.57;;;;;;;15.21;69.62;101528.66;7395404;19;20029;-69
2023/10/02 04:51:28;;;;;;;15.55;7.75;;;;;;;15.18;69.52;101526.13;7396737;19;20010;-69
2023/10/02 04:54:05;;;;;;;16.33;8.48;;;;;;;15.14;69.60;101527.97;7396316;19;20014;-68
2023/10/02 04:56:33;;;;;;;15.63;8.77;;;;;;;15.14;69.71;101530.63;7396037;19;20372;-69
2023/10/02 04:59:04;;;;;;;15.93;8.27;;;;;;;15.09;69.73;101531.66;7394071;19;20481;-68
2023/10/02 05:01:41;;;;;;;20.42;8.20;;;;;;;15.05;69.98;101527.38;7395687;19;20009;-69
2023/10/02 05:04:08;;;;;;;17.63;8.70;;;;;;;15.01;69.88;101521.28;7396611;19;20015;-68
2023/10/02 05:06:52;;;;;;;15.13;8.05;;;;;;;14.98;70.03;101531.97;7396127;19;20014;-69
2023/10/02 05:09:25;;;;;;;16.20;8.27;;;;;;;14.94;70.13;101533.81;7394980;19;20095;-69
2023/10/02 05:11:55;;;;;;;16.40;8.82;;;;;;;14.92;70.03;101534.78;7396428;19;20074;-69
2023/10/02 05:14:29;;;;;;;17.98;8.60;;;;;;;14.88;70.12;101533.13;7394178;19;20079;-69
2023/10/02 05:17:16;;;;;;;15.88;8.82;;;;;;;14.84;70.36;101532.34;7394507;19;20481;-68
2023/10/02 05:20:03;;;;;;;17.70;8.63;;;;;;;14.79;70.47;101535.09;7395412;19;20013;-68
2023/10/02 05:22:33;;;;;;;17.70;8.82;;;;;;;14.75;70.55;101541.38;7396598;19;20007;-69
2023/10/02 05:25:04;;;;;;;15.80;8.30;;;;;;;14.73;70.76;101537.91;7395049;19;20389;-69
2023/10/02 05:27:35;;;;;;;17.42;8.70;;;;;;;14.69;70.75;101538.03;7395432;19;20016;-69
2023/10/02 05:30:12;;;;;;;16.88;9.10;;;;;;;14.66;70.84;101537.19;7393997;19;20010;-69
2023/10/02 05:32:42;;;;;;;15.52;8.30;;;;;;;14.62;70.71;101529.34;7394171;19;20386;-68
2023/10/02 05:35:23;;;;;;;16.58;8.73;;;;;;;14.61;70.77;101538.22;7395117;19;20027;-69
2023/10/02 05:37:54;;;;;;;16.08;8.30;;;;;;;14.59;71.11;101537.38;7391869;19;20015;-69
2023/10/02 05:43:17;;;;;;;17.15;8.77;;;;;;;14.56;71.28;101538.31;7395450;19;20011;-67
2023/10/02 05:45:53;;;;;;;17.77;9.35;;;;;;;14.54;71.15;101537.47;7395297;19;20101;-67
2023/10/02 05:48:34;;;;;;;17.48;8.07;;;;;;;14.55;71.26;101546.28;7394079;19;20010;-69
2023/10/02 05:51:09;;;;;;;14.73;7.78;;;;;;;14.55;71.26;101546.28;7395463;19;20006;-68
2023/10/02 05:53:38;;;;;;;18.77;9.45;;;;;;;14.54;71.54;101553.31;7394416;19;20519;-69
2023/10/02 05:56:12;;;;;;;17.58;9.00;;;;;;;14.55;71.45;101548.94;7394522;19;20010;-68
2023/10/02 05:58:44;;;;;;;15.98;9.20;;;;;;;14.59;71.29;101548.78;7392412;19;20014;-69
2023/10/02 06:01:25;;;;;;;15.32;9.23;;;;;;;14.62;71.50;101545.19;7393986;19;20014;-68
2023/10/02 06:04:00;;;;;;;14.05;7.95;;;;;;;14.64;71.36;101546.03;7393053;19;20418;-69
2023/10/02 06:06:35;;;;;;;16.45;8.45;;;;;;;14.68;71.36;101549.50;7394050;19;20015;-69
2023/10/02 06:09:16;;;;;;;17.50;8.77;;;;;;;14.70;71.18;101553.84;7392650;19;20037;-69
2023/10/02 06:14:25;;;;;;;15.45;8.02;;;;;;;14.76;71.07;101561.59;7391895;19;20014;-69
2023/10/02 06:16:58;;;;;;;17.75;8.25;;;;;;;14.79;71.09;101564.16;7394240;19;20010;-70
2023/10/02 06:19:42;;;;;;;17.65;8.73;;;;;;;14.82;71.01;101565.84;7394468;19;20011;-69
2023/10/02 06:22:13;;;;;;;19.85;9.82;;;;;;;14.86;71.12;101561.34;7394523;19;20015;-69
2023/10/02 06:24:42;;;;;;;17.08;8.15;;;;;;;14.88;70.87;101560.41;7393817;19;20503;-69
2023/10/02 06:27:16;;;;;;;17.77;8.77;;;;;;;14.91;70.87;101560.34;7391856;19;20021;-69
2023/10/02 06:29:49;;;;;;;20.25;9.90;;;;;;;14.94;70.77;101559.38;7392892;19;20014;-68
2023/10/02 06:32:22;;;;;;;15.10;8.23;;;;;;;14.97;70.40;101562.81;7393881;19;20018;-69
2023/10/02 06:34:57;;;;;;;14.83;8.20;;;;;;;14.99;70.61;101571.53;7394106;19;20031;-69
2023/10/02 06:37:36;;;;;;;16.00;8.18;;;;;;;15.01;70.56;101568.84;7393172;19;20018;-69
2023/10/02 06:40:14;;;;;;;15.25;8.32;;;;;;;15.02;70.48;101561.81;7393649;19;20014;-69
2023/10/02 06:42:48;;;;;;;18.13;10.10;;;;;;;15.02;70.29;101561.81;7393130;19;20011;-69
2023/10/02 06:45:18;;;;;;;20.98;11.73;;;;;;;15.04;70.54;101559.97;7393016;19;20090;-69
2023/10/02 06:47:50;;;;;;;21.25;9.98;;;;;;;15.06;70.53;101566.09;7391960;19;20039;-69
2023/10/02 06:50:27;;;;;;;15.07;8.90;;;;;;;15.05;70.30;101559.97;7394801;19;20010;-68
2023/10/02 06:52:57;;;;;;;19.17;9.45;;;;;;;15.13;70.42;101570.31;7399798;19;20485;-69
2023/10/02 06:55:26;;;;;;;16.23;9.18;;;;;;;15.17;70.67;101571.09;7400459;19;20021;-67
2023/10/02 06:57:56;;;;;;;18.33;9.77;;;;;;;15.19;70.55;101559.56;7397813;19;20018;-67
2023/10/02 07:00:54;;;;;;;20.48;9.38;;;;;;;15.24;70.41;101572.63;7399842;19;20401;-67
2023/10/02 07:03:25;;;;;;;15.10;9.27;;;;;;;15.27;70.36;101562.00;7399716;19;20461;-67
2023/10/02 07:05:54;;;;;;;15.18;7.95;;;;;;;15.29;70.10;101562.81;7399952;19;20010;-68
2023/10/02 07:08:26;;;;;;;17.02;9.23;;;;;;;15.33;70.05;101561.81;7398190;19;20022;-68
2023/10/02 07:10:58;;;;;;;18.33;9.23;;;;;;;15.35;70.39;101554.69;7397080;19;20492;-69
2023/10/02 07:13:26;;;;;;;20.15;9.40;;;;;;;15.41;70.20;101558.97;7399322;19;20015;-67
2023/10/02 07:15:59;;;;;;;17.70;8.88;;;;;;;15.46;69.91;101563.19;7396741;19;20015;-68
2023/10/02 07:18:42;;;;;;;21.58;11.65;;;;;;;15.53;69.95;101565.66;7397774;19;20017;-67
2023/10/02 07:21:10;;;;;;;21.00;10.15;;;;;;;15.58;69.78;101566.38;7400362;19;20018;-67
2023/10/02 07:23:40;;;;;;;18.48;8.48;;;;;;;15.63;69.76;101559.19;7399531;19;20031;-67
2023/10/02 07:26:15;;;;;;;15.65;8.88;;;;;;;15.68;69.79;101565.19;7396645;19;20018;-69
2023/10/02 07:28:50;;;;;;;16.75;8.88;;;;;;;15.72;69.82;101564.22;7396590;19;20082;-68
2023/10/02 07:31:18;;;;;;;19.30;9.15;;;;;;;15.76;69.80;101565.84;7400023;19;20105;-67
2023/10/02 07:33:55;;;;;;;15.43;9.30;;;;;;;15.83;69.38;101565.69;7398694;19;20022;-68
2023/10/02 07:36:26;;;;;;;16.00;8.73;;;;;;;15.87;69.49;101557.63;7399569;19;20077;-68
2023/10/02 07:38:55;;;;;;;14.80;8.63;;;;;;;15.92;69.32;101558.34;7396751;19;20449;-69
2023/10/02 07:41:27;;;;;;;15.90;9.40;;;;;;;15.98;69.32;101545.81;7397695;19;20031;-69
2023/10/02 07:44:07;;;;;;;15.73;8.18;;;;;;;16.04;69.42;101550.94;7397496;19;20019;-68
2023/10/02 07:46:36;;;;;;;18.55;9.00;;;;;;;16.09;69.19;101546.34;7399368;19;20022;-68
2023/10/02 07:49:10;;;;;;;17.52;8.43;;;;;;;16.17;69.44;101548.75;7396209;19;20481;-69
2023/10/02 07:51:39;;;;;;;15.63;8.27;;;;;;;16.22;69.20;101547.66;7399678;19;20006;-68
2023/10/02 07:54:13;;;;;;;23.40;9.25;;;;;;;16.29;69.01;101548.34;7396912;19;20023;-69
2023/10/02 07:56:47;;;;;;;17.73;9.02;;;;;;;16.35;68.76;101548.16;7399397;19;20109;-70
2023/10/02 07:59:18;;;;;;;;;;;;;;;16.42;69.09;101554.97;7397087;19;20078;-70
2023/10/02 08:01:46;;;;;;;16.58;8.60;;;;;;;16.49;69.00;101552.09;7395060;19;19907;-69
2023/10/02 08:04:18;;;;;;;18.13;8.43;;;;;;;16.55;68.84;101549.25;7395833;19;20010;-70
2023/10/02 08:06:48;;;;;;;19.23;9.80;;;;;;;16.63;68.74;101552.53;7399868;19;20083;-71
2023/10/02 08:11:58;;;;;;;15.60;8.75;;;;;;;16.78;68.40;101545.81;7398723;19;20543;-69
2023/10/02 08:14:42;;;;;;;17.05;9.10;;;;;;;16.89;68.38;101550.72;7396108;19;20014;-68
2023/10/02 08:17:18;;;;;;;13.23;7.88;;;;;;;16.97;68.13;101547.84;7397788;19;20014;-69
2023/10/02 08:19:59;;;;;;;17.13;8.48;;;;;;;17.08;68.21;101540.38;7397588;19;20010;-68
2023/10/02 08:22:35;;;;;;;18.08;9.57;;;;;;;17.18;68.26;101548.84;7395348;19;20037;-68
2023/10/02 08:25:04;;;;;;;16.33;8.35;;;;;;;17.30;67.37;101543.09;7397711;19;20090;-70
2023/10/02 08:27:32;;;;;;;17.40;9.40;;;;;;;17.39;67.61;101540.09;7394736;19;20027;-66
2023/10/02 08:30:17;;;;;;;17.83;10.10;;;;;;;17.52;67.60;101542.28;7395493;19;20508;-68
2023/10/02 08:32:46;;;;;;;16.73;8.77;;;;;;;17.63;67.30;101542.75;7394826;19;20039;-68
2023/10/02 08:35:17;;;;;;;15.88;8.73;;;;;;;17.75;66.80;101536.97;7397301;19;20011;-68
2023/10/02 08:37:46;;;;;;;18.05;8.45;;;;;;;17.86;66.45;101547.16;7396009;19;20047;-68
2023/10/02 08:40:15;;;;;;;15.10;8.63;;;;;;;17.97;66.39;101528.19;7397852;19;20029;-69
2023/10/02 08:42:46;;;;;;;16.50;8.32;;;;;;;18.07;66.15;101533.97;7396455;19;20488;-68
2023/10/02 08:45:20;;;;;;;17.48;8.07;;;;;;;18.18;66.25;101537.03;7396683;19;20015;-68
2023/10/02 08:47:49;;;;;;;18.67;7.82;;;;;;;18.31;65.70;101537.41;7395532;19;20086;-68
2023/10/02 08:50:22;;;;;;;16.33;7.82;;;;;;;18.42;64.76;101539.59;7394072;19;20014;-70
2023/10/02 08:52:50;;;;;;;14.73;7.78;;;;;;;18.54;64.61;101538.25;7396800;19;20033;-69
2023/10/02 08:55:40;;;;;;;14.90;8.20;;;;;;;18.64;64.65;101533.38;7396089;19;20025;-68
2023/10/02 08:58:19;;;;;;;20.33;10.15;;;;;;;18.75;63.99;101540.91;7395194;19;20019;-67
2023/10/02 09:01:17;;;;;;;17.15;9.55;;;;;;;18.87;63.44;101548.34;7396946;19;20027;-68
2023/10/02 09:04:21;;;;;;;15.63;7.95;;;;;;;18.99;63.19;101547.84;7394424;19;20013;-68
2023/10/02 09:06:58;;;;;;;14.68;8.10;;;;;;;19.12;63.34;101552.59;7395383;19;20018;-66
2023/10/02 09:09:36;;;;;;;14.43;7.72;;;;;;;19.21;62.72;101547.72;7394983;19;20011;-69
2023/10/02 09:12:08;;;;;;;16.17;8.50;;;;;;;19.31;63.00;101545.50;7395003;19;20358;-69
2023/10/02 09:14:42;;;;;;;14.82;7.90;;;;;;;19.42;62.29;101541.50;7395480;19;20315;-67
2023/10/02 09:17:23;;;;;;;16.05;7.57;;;;;;;19.53;61.91;101541.84;7395084;19;20013;-68
2023/10/02 09:20:02;;;;;;;15.60;7.63;;;;;;;19.64;61.49;101538.69;7396429;19;20074;-69
2023/10/02 09:22:38;;;;;;;14.98;7.63;;;;;;;19.73;61.36;101540.03;7396015;19;20014;-68
2023/10/02 09:25:13;;;;;;;19.08;9.05;;;;;;;19.82;61.50;101540.50;7396514;19;20014;-67
2023/10/02 09:27:54;;;;;;;18.33;8.80;;;;;;;19.92;60.58;101535.59;7394618;19;20014;-69
2023/10/02 09:30:36;;;;;;;18.38;8.52;;;;;;;20.04;60.53;101525.28;7394530;19;20358;-67
2023/10/02 09:33:10;;;;;;;20.27;8.07;;;;;;;20.14;60.39;101523.88;7395123;19;20013;-69
2023/10/02 09:35:42;;;;;;;14.98;7.95;;;;;;;20.24;59.95;101526.97;7395911;19;20010;-68
2023/10/02 09:38:17;;;;;;;17.60;7.25;;;;;;;20.33;60.03;101526.47;7394867;19;20070;-69
2023/10/02 09:40:54;;;;;;;14.52;7.32;;;;;;;20.44;59.79;101523.28;7395860;19;20017;-69
2023/10/02 09:43:24;;;;;;;15.35;7.82;;;;;;;20.53;59.08;101517.47;7394902;19;20010;-70
2023/10/02 09:45:53;;;;;;;17.13;9.55;;;;;;;20.62;58.84;101524.13;7395275;19;20014;-69
2023/10/02 09:48:53;;;;;;;18.23;8.23;;;;;;;20.70;58.97;101515.72;7394757;19;20434;-69
2023/10/02 09:51:44;;;;;;;15.75;8.82;;;;;;;20.82;58.24;101515.13;7393493;19;20011;-68
2023/10/02 09:54:28;;;;;;;17.70;8.75;;;;;;;20.93;58.07;101512.75;7394302;19;20023;-69
2023/10/02 09:57:11;;;;;;;18.92;7.65;;;;;;;21.02;58.11;101514.06;7393371;19;20018;-69
2023/10/02 09:59:45;;;;;;;11.50;6.93;;;;;;;21.11;57.63;101497.56;7394378;19;20010;-68
2023/10/02 10:10:52;;;;;;;16.45;8.50;;;;;;;21.43;55.83;101494.94;7392050;19;20041;-67
2023/10/02 10:13:25;;;;;;;18.95;8.27;;;;;;;21.49;55.89;101504.41;7394793;19;20018;-69
2023/10/02 10:16:30;;;;;;;21.67;8.50;;;;;;;21.53;55.54;101502.44;7393837;19;20385;-68
2023/10/02 10:22:00;;;;;;;16.55;7.40;;;;;;;21.59;56.26;101486.94;7393619;19;20011;-69
2023/10/02 10:24:33;;;;;;;14.50;8.95;;;;;;;21.61;55.73;101484.19;7395747;19;20099;-70
2023/10/02 10:27:04;;;;;;;;;;;;;;;21.59;55.36;101484.28;7398785;19;20010;-69
2023/10/02 10:29:41;;;;;;;17.75;8.45;;;;;;;21.59;56.00;101470.94;7401213;19;19936;-68
2023/10/02 10:32:23;;;;;;;16.02;8.02;;;;;;;21.61;55.68;101470.84;7400935;19;20082;-68
2023/10/02 10:37:46;;;;;;;22.33;11.27;;;;;;;21.67;55.76;101477.66;7398105;19;20040;-68
2023/10/02 10:40:43;;;;;;;12.85;8.27;;;;;;;21.68;55.27;101479.38;7402879;19;20010;-68
2023/10/02 10:43:16;;;;;;;14.13;7.78;;;;;;;21.72;55.50;101479.09;7398421;19;20006;-68
2023/10/02 10:45:44;;;;;;;18.23;8.90;;;;;;;21.71;55.57;101476.53;7398053;19;20505;-69
2023/10/02 10:48:22;;;;;;;14.95;7.72;;;;;;;21.75;55.37;101478.06;7398878;19;20037;-69
2023/10/02 10:50:57;;;;;;;15.45;7.40;;;;;;;21.78;55.32;101475.22;7399830;19;20010;-68
2023/10/02 10:53:29;;;;;;;16.13;8.23;;;;;;;21.79;55.49;101480.47;7401509;19;20118;-69
2023/10/02 10:56:03;;;;;;;19.25;8.35;;;;;;;21.82;54.69;101475.91;7400847;19;20531;-69
2023/10/02 10:58:36;;;;;;;13.30;7.20;;;;;;;21.83;55.17;101467.81;7396620;19;20014;-68
2023/10/02 11:01:13;;;;;;;15.63;7.80;;;;;;;21.84;54.82;101465.97;7400283;19;20098;-68
2023/10/02 11:03:41;;;;;;;13.65;7.85;;;;;;;21.86;55.24;101464.09;7399127;19;20496;-68
2023/10/02 11:06:11;;;;;;;15.57;7.90;;;;;;;21.90;54.97;101463.84;7396967;19;20011;-69
2023/10/02 11:08:40;;;;;;;16.83;7.32;;;;;;;21.95;54.63;101452.88;7398090;19;20078;-69
2023/10/02 11:11:22;;;;;;;15.32;7.15;;;;;;;22.04;54.55;101448.78;7398034;19;20015;-71
2023/10/02 11:13:58;;;;;;;13.05;7.63;;;;;;;22.14;54.42;101450.00;7399611;19;20011;-68
2023/10/02 11:16:34;;;;;;;10.95;6.55;;;;;;;22.26;53.94;101445.72;7401545;19;20044;-69
2023/10/02 11:19:10;;;;;;;16.45;7.55;;;;;;;22.38;53.98;101444.13;7397110;19;20010;-69
2023/10/02 11:21:45;;;;;;;14.77;7.70;;;;;;;22.51;53.65;101439.78;7399155;19;20014;-70
2023/10/02 11:24:26;;;;;;;13.25;7.43;;;;;;;22.67;52.62;101433.47;7399976;19;20096;-70
2023/10/02 11:26:56;;;;;;;14.30;7.18;;;;;;;22.80;52.65;101434.44;7396620;19;20014;-67
2023/10/02 11:29:27;;;;;;;16.33;7.50;;;;;;;22.91;52.40;101431.94;7398953;19;20013;-68
2023/10/02 11:32:19;;;;;;;13.80;7.35;;;;;;;23.01;52.05;101431.34;7396305;19;20078;-69
2023/10/02 11:34:48;;;;;;;14.52;7.00;;;;;;;23.06;52.14;101431.91;7398745;19;20043;-70
2023/10/02 11:37:17;;;;;;;14.77;7.85;;;;;;;23.14;51.90;101428.75;7395919;19;20006;-68
2023/10/02 11:39:50;;;;;;;13.35;7.65;;;;;;;23.18;51.66;101430.31;7399207;19;20075;-68
2023/10/02 11:42:20;;;;;;;13.45;7.28;;;;;;;23.23;51.79;101415.69;7398157;19;20476;-69
2023/10/02 11:44:51;;;;;;;14.40;7.32;;;;;;;23.30;51.82;101409.94;7399451;19;20070;-68
2023/10/02 11:47:21;;;;;;;;;;;;;;;23.35;51.33;101415.84;7398977;19;20041;-68
2023/10/02 11:49:50;;;;;;;19.38;7.32;;;;;;;23.44;51.42;101412.53;7396155;19;20355;-72
2023/10/02 11:52:18;;;;;;;12.18;6.78;;;;;;;23.51;51.54;101413.88;7396393;19;20027;-68
2023/10/02 11:54:47;;;;;;;12.48;6.80;;;;;;;23.59;51.04;101416.91;7399179;19;20073;-69
2023/10/02 11:57:15;;;;;;;13.55;6.70;;;;;;;23.69;50.76;101411.78;7399290;19;20141;-69
2023/10/02 11:59:47;;;;;;;12.68;6.93;;;;;;;23.79;50.79;101406.66;7397582;19;20487;-68
2023/10/02 12:02:19;;;;;;;12.88;6.50;;;;;;;23.89;50.01;101402.41;7395960;19;20030;-69
2023/10/02 12:04:52;;;;;;;13.70;6.55;;;;;;;23.99;49.97;101396.47;7397813;19;20015;-69
2023/10/02 12:07:21;;;;;;;12.38;5.80;;;;;;;24.09;49.61;101397.56;7397560;19;20018;-73
2023/10/02 12:09:52;;;;;;;13.40;6.63;;;;;;;24.15;49.67;101394.44;7397666;19;20329;-71
2023/10/02 12:12:21;;;;;;;16.95;6.82;;;;;;;24.27;49.50;101397.25;7395499;19;20027;-71
2023/10/02 12:14:49;;;;;;;10.57;6.22;;;;;;;24.34;48.86;101395.84;7397159;19;20029;-71
2023/10/02 12:17:21;;;;;;;14.88;6.43;;;;;;;24.47;48.14;101402.06;7395394;19;20010;-71
2023/10/02 12:19:51;;;;;;;17.42;6.55;;;;;;;24.61;48.78;101392.19;7395630;19;20014;-70
2023/10/02 12:22:20;;;;;;;12.23;6.13;;;;;;;24.76;48.51;101391.13;7397397;19;20031;-70
2023/10/02 12:24:49;;;;;;;10.80;5.95;;;;;;;24.95;47.87;101384.44;7396980;19;20419;-69
2023/10/02 12:27:18;;;;;;;17.92;6.60;;;;;;;25.12;47.38;101375.13;7394818;19;20025;-70
2023/10/02 12:29:47;;;;;;;12.50;6.13;;;;;;;25.28;46.77;101390.97;7397554;19;20014;-69
2023/10/02 12:32:23;;;;;;;13.05;6.88;;;;;;;25.46;46.73;101378.88;7395361;19;20027;-71